createdAt,value
2022-12-08T00:02:07.690Z,19.53
2022-12-08T00:06:43.344Z,19.47
2022-12-08T00:10:49.333Z,23.87
2022-12-08T00:14:52.815Z,24.53
2022-12-08T00:18:55.559Z,23.47
2022-12-08T00:22:58.347Z,26.17
2022-12-08T00:27:02.928Z,21.80
2022-12-08T00:31:09.500Z,23.37
2022-12-08T00:35:12.174Z,23.50
2022-12-08T00:39:16.692Z,23.27
2022-12-08T00:43:20.824Z,25.63
2022-12-08T00:47:24.959Z,24.17
2022-12-08T00:51:27.941Z,20.03
2022-12-08T00:55:30.718Z,23.63
2022-12-08T00:59:34.870Z,24.67
2022-12-08T01:03:38.460Z,24.37
2022-12-08T01:07:41.335Z,26.43
2022-12-08T01:11:45.036Z,23.23
2022-12-08T01:15:49.109Z,25.90
2022-12-08T01:19:52.319Z,23.80
2022-12-08T01:23:55.406Z,24.63
2022-12-08T01:27:58.124Z,24.57
2022-12-08T01:32:02.443Z,25.97
2022-12-08T01:36:05.726Z,26.00
2022-12-08T01:40:09.750Z,22.47
2022-12-08T01:44:50.205Z,24.80
2022-12-08T01:48:57.782Z,26.63
2022-12-08T01:53:03.246Z,23.37
2022-12-08T01:57:11.159Z,27.03
2022-12-08T02:01:14.159Z,26.43
2022-12-08T02:05:20.570Z,23.07
2022-12-08T02:09:23.578Z,27.20
2022-12-08T02:13:26.704Z,25.57
2022-12-08T02:17:44.549Z,27.40
2022-12-08T02:21:55.538Z,26.87
2022-12-08T02:26:30.358Z,27.80
2022-12-08T02:30:45.816Z,27.43
2022-12-08T02:35:00.598Z,27.70
2022-12-08T02:39:13.633Z,25.03
2022-12-08T02:43:22.854Z,27.27
2022-12-08T02:47:27.812Z,25.03
2022-12-08T02:51:31.948Z,22.93
2022-12-08T02:55:44.287Z,23.83
2022-12-08T03:00:03.072Z,24.10
2022-12-08T03:04:11.247Z,23.60
2022-12-08T03:08:22.765Z,20.90
2022-12-08T03:12:31.351Z,21.83
2022-12-08T03:16:37.860Z,21.20
2022-12-08T03:20:42.051Z,19.93
2022-12-08T03:24:47.684Z,20.57
2022-12-08T03:28:50.429Z,20.73
2022-12-08T03:32:57.421Z,21.23
2022-12-08T03:37:02.456Z,20.90
2022-12-08T03:41:21.807Z,17.67
2022-12-08T03:45:24.576Z,19.83
2022-12-08T03:49:27.308Z,20.67
2022-12-08T03:53:30.068Z,20.13
2022-12-08T03:57:34.146Z,18.03
2022-12-08T04:01:37.204Z,18.77
2022-12-08T04:05:39.972Z,17.83
2022-12-08T04:09:42.722Z,19.00
2022-12-08T04:13:47.306Z,16.70
2022-12-08T04:17:50.053Z,18.57
2022-12-08T04:21:52.902Z,18.10
2022-12-08T04:25:55.752Z,18.17
2022-12-08T04:29:59.809Z,17.47
2022-12-08T04:34:02.510Z,18.40
2022-12-08T04:38:05.260Z,20.10
2022-12-08T04:42:07.942Z,19.27
2022-12-08T04:46:12.184Z,17.83
2022-12-08T04:50:15.294Z,15.80
2022-12-08T04:54:18.019Z,18.00
2022-12-08T04:58:21.626Z,17.67
2022-12-08T05:02:25.821Z,19.27
2022-12-08T05:06:28.573Z,16.97
2022-12-08T05:10:31.328Z,16.80
2022-12-08T05:14:34.050Z,16.57
2022-12-08T05:18:39.052Z,15.77
2022-12-08T05:22:41.784Z,16.57
2022-12-08T05:26:44.501Z,16.90
2022-12-08T05:30:47.253Z,17.97
2022-12-08T05:34:51.335Z,17.90
2022-12-08T05:38:54.043Z,16.47
2022-12-08T05:42:56.762Z,18.27
2022-12-08T05:46:59.481Z,16.03
2022-12-08T05:51:03.612Z,15.50
2022-12-08T05:55:07.091Z,16.07
2022-12-08T05:59:09.824Z,14.53
2022-12-08T06:03:13.230Z,14.87
2022-12-08T06:07:17.502Z,15.23
2022-12-08T06:11:21.486Z,15.40
2022-12-08T06:15:24.318Z,14.57
2022-12-08T06:19:27.042Z,14.40
2022-12-08T06:23:31.156Z,12.93
2022-12-08T06:27:34.658Z,13.63
2022-12-08T06:31:37.441Z,12.57
2022-12-08T06:35:40.215Z,11.87
2022-12-08T06:39:44.275Z,10.70
2022-12-08T06:43:47.062Z,10.30
2022-12-08T06:47:49.786Z,9.83
2022-12-08T06:51:52.507Z,10.00
2022-12-08T06:56:00.063Z,9.80
2022-12-08T07:00:03.910Z,10.73
2022-12-08T07:04:06.932Z,8.63
2022-12-08T07:08:10.294Z,10.10
2022-12-08T07:12:14.440Z,8.70
2022-12-08T07:16:17.224Z,8.80
2022-12-08T07:20:20.124Z,9.03
2022-12-08T07:24:23.029Z,6.97
2022-12-08T07:28:27.129Z,7.93
2022-12-08T07:32:29.938Z,7.67
2022-12-08T07:36:33.494Z,8.53
2022-12-08T07:40:36.780Z,7.83
2022-12-08T07:44:40.885Z,7.63
2022-12-08T07:48:43.824Z,7.57
2022-12-08T07:52:46.600Z,8.60
2022-12-08T07:56:49.563Z,7.77
2022-12-08T08:00:53.892Z,6.83
2022-12-08T08:04:57.013Z,7.07
2022-12-08T08:08:59.751Z,7.20
2022-12-08T08:13:02.663Z,7.20
2022-12-08T08:17:06.950Z,7.53
2022-12-08T08:21:43.372Z,7.30
2022-12-08T08:25:33.015Z,7.03
2022-12-08T08:29:35.718Z,7.40
2022-12-08T08:33:39.865Z,6.37
2022-12-08T08:37:48.373Z,6.77
2022-12-08T08:41:51.721Z,6.30
2022-12-08T08:45:54.541Z,5.87
2022-12-08T08:49:58.647Z,6.77
2022-12-08T08:54:01.433Z,6.43
2022-12-08T08:58:04.253Z,7.83
2022-12-08T09:02:07.084Z,7.27
2022-12-08T09:06:13.366Z,6.40
2022-12-08T09:10:16.324Z,7.93
2022-12-08T09:14:18.993Z,7.73
2022-12-08T09:18:21.837Z,6.93
2022-12-08T09:22:25.931Z,7.90
2022-12-08T09:26:29.396Z,8.20
2022-12-08T09:30:32.229Z,7.90
2022-12-08T09:34:35.031Z,7.90
2022-12-08T09:38:39.747Z,7.87
2022-12-08T09:42:48.712Z,8.33
2022-12-08T09:46:53.795Z,8.70
2022-12-08T09:50:58.871Z,9.00
2022-12-08T09:55:10.453Z,8.17
2022-12-08T09:59:24.730Z,7.37
2022-12-08T10:03:30.457Z,7.33
2022-12-08T10:07:40.155Z,7.80
2022-12-08T10:11:52.371Z,9.30
2022-12-08T10:16:08.666Z,10.43
2022-12-08T10:20:16.249Z,8.37
2022-12-08T10:24:26.982Z,8.87
2022-12-08T10:28:33.015Z,10.80
2022-12-08T10:32:36.438Z,16.97
2022-12-08T10:36:50.819Z,15.10
2022-12-08T10:41:00.554Z,13.33
2022-12-08T10:45:21.382Z,8.30
2022-12-08T10:49:32.186Z,8.80
2022-12-08T10:53:45.300Z,6.97
2022-12-08T10:57:49.459Z,7.03
2022-12-08T11:01:55.394Z,8.83
2022-12-08T11:06:07.095Z,7.57
2022-12-08T11:10:18.915Z,9.43
2022-12-08T11:14:25.408Z,8.20
2022-12-08T11:18:40.362Z,7.47
2022-12-08T11:22:44.769Z,6.53
2022-12-08T11:26:51.220Z,7.53
2022-12-08T11:30:59.228Z,6.07
2022-12-08T11:35:05.425Z,5.80
2022-12-08T11:39:13.546Z,5.43
2022-12-08T11:43:20.385Z,5.70
2022-12-08T11:47:27.425Z,7.00
2022-12-08T11:51:34.512Z,5.60
2022-12-08T11:55:45.204Z,5.23
2022-12-08T11:59:52.962Z,4.63
2022-12-08T12:04:04.242Z,5.07
2022-12-08T12:08:25.713Z,5.73
2022-12-08T12:12:43.869Z,4.83
2022-12-08T12:17:01.911Z,4.40
2022-12-08T12:21:12.272Z,5.03
2022-12-08T12:25:22.068Z,4.53
2022-12-08T12:29:27.654Z,4.00
2022-12-08T12:33:31.528Z,5.27
2022-12-08T12:37:39.441Z,4.90
2022-12-08T12:41:49.290Z,4.33
2022-12-08T12:46:39.317Z,4.80
2022-12-08T12:50:44.377Z,4.67
2022-12-08T12:55:20.674Z,4.40
2022-12-08T12:59:41.010Z,4.70
2022-12-08T13:03:47.177Z,4.17
2022-12-08T13:07:54.061Z,3.83
2022-12-08T13:12:00.155Z,5.17
2022-12-08T13:16:19.216Z,5.30
2022-12-08T13:20:24.599Z,4.70
2022-12-08T13:24:34.490Z,5.67
2022-12-08T13:29:05.687Z,4.33
2022-12-08T13:33:18.073Z,5.80
2022-12-08T13:37:26.235Z,5.43
2022-12-08T13:41:36.443Z,5.23
2022-12-08T13:46:48.712Z,6.40
2022-12-08T13:56:05.565Z,7.43
2022-12-08T13:59:25.395Z,5.40
2022-12-08T14:03:29.412Z,4.90
2022-12-08T14:07:34.903Z,23.30
2022-12-08T14:11:39.744Z,87.17
2022-12-08T14:15:42.853Z,6.20
2022-12-08T14:19:53.471Z,4.17
2022-12-08T14:24:02.727Z,4.30
2022-12-08T14:28:06.377Z,4.63
2022-12-08T14:32:22.784Z,4.07
2022-12-08T14:36:25.958Z,4.60
2022-12-08T14:40:33.940Z,4.10
2022-12-08T14:44:41.374Z,4.93
2022-12-08T14:48:44.633Z,5.83
2022-12-08T14:52:48.129Z,4.67
2022-12-08T14:56:55.958Z,4.73
2022-12-08T15:01:01.672Z,5.00
2022-12-08T15:05:11.365Z,4.50
2022-12-08T15:09:28.031Z,3.90
2022-12-08T15:13:32.266Z,4.27
2022-12-08T15:17:41.567Z,6.50
2022-12-08T15:21:45.933Z,5.20
2022-12-08T15:25:49.484Z,8.97
2022-12-08T15:29:54.631Z,8.70
2022-12-08T15:33:57.502Z,8.27
2022-12-08T15:38:02.274Z,10.63
2022-12-08T15:42:10.878Z,8.67
2022-12-08T15:46:15.159Z,6.87
2022-12-08T15:50:19.862Z,8.23
2022-12-08T15:54:22.951Z,8.23
2022-12-08T16:03:22.401Z,6.57
2022-12-08T16:07:22.553Z,6.30
2022-12-08T16:12:05.310Z,11.00
2022-12-08T16:16:08.433Z,11.07
2022-12-08T16:20:16.704Z,9.13
2022-12-08T16:24:19.934Z,7.73
2022-12-08T16:28:52.718Z,6.60
2022-12-08T16:32:45.603Z,5.63
2022-12-08T16:36:52.302Z,6.50
2022-12-08T16:41:12.573Z,6.73
2022-12-08T16:45:18.017Z,6.80
2022-12-08T16:49:20.715Z,14.50
2022-12-08T16:53:24.916Z,16.63
2022-12-08T16:57:28.499Z,12.93
2022-12-08T17:01:31.385Z,12.33
2022-12-08T17:05:34.520Z,11.07
2022-12-08T17:09:38.621Z,12.33
2022-12-08T17:13:42.936Z,11.90
2022-12-08T17:17:45.645Z,13.60
2022-12-08T17:21:48.394Z,14.40
2022-12-08T17:26:00.571Z,14.27
2022-12-08T17:30:03.857Z,15.60
2022-12-08T17:34:10.310Z,12.23
2022-12-08T17:38:13.145Z,20.63
2022-12-08T17:42:17.212Z,19.83
2022-12-08T17:46:20.625Z,19.83
2022-12-08T17:50:23.453Z,18.07
2022-12-08T17:54:27.662Z,15.57
2022-12-08T17:58:32.349Z,13.57
2022-12-08T18:02:37.762Z,14.13
2022-12-08T18:06:41.360Z,13.30
2022-12-08T18:10:44.212Z,15.37
2022-12-08T18:14:48.696Z,14.30
2022-12-08T18:18:51.894Z,13.83
2022-12-08T18:22:54.601Z,14.93
2022-12-08T18:26:57.716Z,14.23
2022-12-08T18:31:02.195Z,28.23
2022-12-08T18:35:05.366Z,19.10
2022-12-08T18:39:10.907Z,19.90
2022-12-08T18:43:17.241Z,18.03
2022-12-08T18:47:21.285Z,16.27
2022-12-08T18:51:25.429Z,15.37
2022-12-08T18:55:28.198Z,18.73
2022-12-08T18:59:31.063Z,29.33
2022-12-08T19:03:35.171Z,22.80
2022-12-08T19:07:38.156Z,16.17
2022-12-08T19:11:41.114Z,19.80
2022-12-08T19:15:43.939Z,17.40
2022-12-08T19:19:48.183Z,18.27
2022-12-08T19:23:51.664Z,20.10
2022-12-08T19:27:54.372Z,20.50
2022-12-08T19:31:57.360Z,21.33
2022-12-08T19:36:06.203Z,22.17
2022-12-08T19:40:30.985Z,19.93
2022-12-08T19:44:51.362Z,23.30
2022-12-08T19:48:55.414Z,21.40
2022-12-08T19:52:59.708Z,26.50
2022-12-08T19:57:02.858Z,23.20
2022-12-08T20:01:05.704Z,20.00
2022-12-08T20:05:09.559Z,20.03
2022-12-08T20:09:14.291Z,20.00
2022-12-08T20:13:34.904Z,21.13
2022-12-08T20:17:37.794Z,18.20
2022-12-08T20:21:41.003Z,20.67
2022-12-08T20:25:47.603Z,24.60
2022-12-08T20:29:50.574Z,22.33
2022-12-08T20:33:53.700Z,20.73
2022-12-08T20:37:56.518Z,21.37
2022-12-08T20:42:00.669Z,20.17
2022-12-08T20:46:07.050Z,19.77
2022-12-08T20:50:11.022Z,23.37
2022-12-08T20:54:14.164Z,22.37
2022-12-08T20:58:18.313Z,22.27
2022-12-08T21:02:21.172Z,21.67
2022-12-08T21:06:26.990Z,26.23
2022-12-08T21:10:29.814Z,25.63
2022-12-08T21:14:34.006Z,25.50
2022-12-08T21:18:39.728Z,28.20
2022-12-08T21:22:42.989Z,24.30
2022-12-08T21:26:45.910Z,22.33
2022-12-08T21:30:50.203Z,25.30
2022-12-08T21:34:54.547Z,26.87
2022-12-08T21:39:00.690Z,27.87
2022-12-08T21:43:04.851Z,32.37
2022-12-08T21:47:09.004Z,28.77
2022-12-08T21:51:12.262Z,26.47
2022-12-08T21:55:17.023Z,24.37
2022-12-08T21:59:20.829Z,22.27
2022-12-08T22:03:25.208Z,25.20
2022-12-08T22:07:28.068Z,30.10
2022-12-08T22:11:31.219Z,24.73
2022-12-08T22:15:34.207Z,21.93
2022-12-08T22:19:38.510Z,23.37
2022-12-08T22:23:41.464Z,26.00
2022-12-08T22:27:44.128Z,24.40
2022-12-08T22:31:47.144Z,26.33
2022-12-08T22:35:57.987Z,26.77
2022-12-08T22:40:00.889Z,28.43
2022-12-08T22:44:06.512Z,24.03
2022-12-08T22:48:09.450Z,29.30
2022-12-08T22:52:13.584Z,23.93
2022-12-08T22:56:17.680Z,23.37
2022-12-08T23:00:21.742Z,23.33
2022-12-08T23:04:24.631Z,26.03
2022-12-08T23:08:28.880Z,27.23
2022-12-08T23:12:32.371Z,35.10
2022-12-08T23:16:35.330Z,26.43
2022-12-08T23:20:39.314Z,25.30
2022-12-08T23:24:43.444Z,26.20
2022-12-08T23:28:46.182Z,29.70
2022-12-08T23:32:49.190Z,25.83
2022-12-08T23:36:52.092Z,25.53
2022-12-08T23:40:56.357Z,23.93
2022-12-08T23:44:59.115Z,24.13
2022-12-08T23:49:02.332Z,23.10
2022-12-08T23:53:05.382Z,21.30
2022-12-08T23:57:09.570Z,23.00
